Csl Argosy — C6UZ9 — position and weather

sailwx.info

Track history (hours):
 
Tides and Currents Weather Stations Pressure Air Temp Water Temp Dewpoint Dewpoint Depression Visibility Wind Speed Wind Dir Waves Ship Positions

Csl Argosy

Last reported at 2016-Jun-19 07:33 UTC. Time now 2016-Jun-24 20:27 UTC.
Position N 37°24' W 074°12'.

Length 244 m; draft 11.9 m.

Type: Cargo ship. MMSI: 308299000.

Date/timePositionNaut miles runAvg speedWind from/ knotsBaromVisibWave heightAir tempDewpointWater temp
2016-Jun-19 07:33N 37°24' W 074°12'18 8.9
2016-Jun-19 05:33N 37°16' W 074°32'10 9.2
2016-Jun-19 04:30N 37°12' W 074°43'12 9.3
2016-Jun-19 03:13N 37°07' W 074°56'48 8.5
2016-Jun-18 21:33N 36°53' W 075°54'9 9.4
2016-Jun-18 20:33N 37°00' W 076°02'58 9.7
2016-Jun-18 14:33N 37°58' W 076°11'1010.4
2016-Jun-18 13:33N 38°08' W 076°14'1111.0
2016-Jun-18 12:32N 38°19' W 076°18'1111.2
2016-Jun-18 11:33N 38°29' W 076°23'1010.0
2016-Jun-18 10:33N 38°39' W 076°25'10 9.9
2016-Jun-18 09:33N 38°48' W 076°25'9 9.4
2016-Jun-18 08:33N 38°58' W 076°23'8 8.4
2016-Jun-18 07:33N 39°06' W 076°24'8 8.3
2016-Jun-18 06:33N 39°12' W 076°31'4 4.0
2016-Jun-18 05:33N 39°15' W 076°34'0 0.0
2016-Jun-18 04:33N 39°15' W 076°34'0 0.0
2016-Jun-18 03:33N 39°15' W 076°34'0 0.0
2016-Jun-18 02:33N 39°15' W 076°34'0 0.0
2016-Jun-18 01:33N 39°15' W 076°34'0 0.0
2016-Jun-18 00:33N 39°15' W 076°34'0 0.0
2016-Jun-17 23:33N 39°15' W 076°34'0 0.0
2016-Jun-17 22:33N 39°15' W 076°34'0 0.0
2016-Jun-17 21:33N 39°15' W 076°34'0 0.0
2016-Jun-17 20:33N 39°15' W 076°34'0 0.0
2016-Jun-17 19:33N 39°15' W 076°34'0 0.0
2016-Jun-17 18:33N 39°15' W 076°34'0 0.0
2016-Jun-17 17:33N 39°15' W 076°34'0 0.0
2016-Jun-17 16:33N 39°15' W 076°34'0 0.0
2016-Jun-17 15:33N 39°15' W 076°34'0 0.0
2016-Jun-17 14:33N 39°15' W 076°34'0 0.0
2016-Jun-17 13:33N 39°15' W 076°34'0 0.0
2016-Jun-17 12:33N 39°15' W 076°34'0 0.0
2016-Jun-17 11:33N 39°15' W 076°34'0 0.0
2016-Jun-17 10:33N 39°15' W 076°34'0 0.0
2016-Jun-17 09:33N 39°15' W 076°34'0 0.0
2016-Jun-17 08:33N 39°15' W 076°34'0 0.0
2016-Jun-17 07:33N 39°15' W 076°34'0 0.0
2016-Jun-17 06:33N 39°15' W 076°34'0 0.0
2016-Jun-17 05:33N 39°15' W 076°34'0 0.0
2016-Jun-17 04:33N 39°15' W 076°34'0 0.0
2016-Jun-17 03:33N 39°15' W 076°34'0 0.0
2016-Jun-17 02:33N 39°15' W 076°34'0 0.1
2016-Jun-17 01:33N 39°15' W 076°34'1 1.0
2016-Jun-17 00:31N 39°15' W 076°33'0 0.0
2016-Jun-16 23:31N 39°15' W 076°33'0 0.0
2016-Jun-16 22:31N 39°15' W 076°33'0 0.0
2016-Jun-16 21:31N 39°15' W 076°33'0 0.1
2016-Jun-16 20:31N 39°15' W 076°33'3 3.4
2016-Jun-16 19:33N 39°12' W 076°30'10 9.6
2016-Jun-16 18:33N 39°04' W 076°24'7 6.7
2016-Jun-16 17:31N 38°57' W 076°25'0 0.1
2016-Jun-16 16:31N 38°57' W 076°24'0 0.0
2016-Jun-16 15:31N 38°57' W 076°24'0 0.0
2016-Jun-16 14:31N 38°57' W 076°24'0 0.0
2016-Jun-16 13:31N 38°57' W 076°24'0 0.0
2016-Jun-16 12:31N 38°57' W 076°24'0 0.1
2016-Jun-16 11:31N 38°57' W 076°25'0 0.1
2016-Jun-16 10:31N 38°57' W 076°25'0 0.1
2016-Jun-16 09:31N 38°57' W 076°24'0 0.1
2016-Jun-16 08:31N 38°57' W 076°24'0 0.0
2016-Jun-16 07:31N 38°57' W 076°24'0 0.0
2016-Jun-16 06:31N 38°57' W 076°24'0 0.0
2016-Jun-16 05:31N 38°57' W 076°24'0 0.0
2016-Jun-16 04:31N 38°57' W 076°24'0 0.0
2016-Jun-16 03:31N 38°57' W 076°24'0 0.1
2016-Jun-16 02:31N 38°57' W 076°24'0 0.1
2016-Jun-16 01:31N 38°57' W 076°25'0 0.0
2016-Jun-16 00:31N 38°57' W 076°25'0 0.0
2016-Jun-15 23:31N 38°57' W 076°25'0 0.1
2016-Jun-15 22:31N 38°57' W 076°24'0 0.1
2016-Jun-15 21:31N 38°57' W 076°24'0 0.0
2016-Jun-15 20:31N 38°57' W 076°24'0 0.1
2016-Jun-15 19:31N 38°57' W 076°24'0 0.2
2016-Jun-15 18:32N 38°57' W 076°24'0 0.0
2016-Jun-15 17:31N 38°57' W 076°24'0 0.0
2016-Jun-15 16:31N 38°57' W 076°24'0 0.0
2016-Jun-15 15:31N 38°57' W 076°24'0 0.0
2016-Jun-15 14:31N 38°57' W 076°24'0 0.0
2016-Jun-15 13:31N 38°57' W 076°24'0 0.0
2016-Jun-15 12:31N 38°57' W 076°24'0 0.2
2016-Jun-15 11:31N 38°57' W 076°24'0 0.1
2016-Jun-15 10:31N 38°57' W 076°24'0 0.0
2016-Jun-15 09:31N 38°57' W 076°24'0 0.0
2016-Jun-15 08:31N 38°57' W 076°24'0 0.0
2016-Jun-15 07:31N 38°57' W 076°24'0 0.0
2016-Jun-15 06:31N 38°57' W 076°24'0 0.0
2016-Jun-15 05:31N 38°57' W 076°24'0 0.0
2016-Jun-15 04:31N 38°57' W 076°24'0 0.0
2016-Jun-15 03:31N 38°57' W 076°24'0 0.2
2016-Jun-15 02:31N 38°57' W 076°25'0 0.1
2016-Jun-15 01:31N 38°57' W 076°25'0 0.0
2016-Jun-15 00:31N 38°57' W 076°24'0 0.0
2016-Jun-14 23:31N 38°57' W 076°24'0 0.0
2016-Jun-14 22:31N 38°57' W 076°24'0 0.0
2016-Jun-14 21:31N 38°57' W 076°24'0 0.0
2016-Jun-14 20:31N 38°57' W 076°25'0 0.1
2016-Jun-14 19:31N 38°57' W 076°25'0 0.0
2016-Jun-14 18:31N 38°57' W 076°25'0 0.1
2016-Jun-14 17:31N 38°57' W 076°24'0 0.0
2016-Jun-14 16:31N 38°57' W 076°24'0 0.0
2016-Jun-14 15:31N 38°57' W 076°25'0 0.0
2016-Jun-14 14:31N 38°57' W 076°24'0 0.0
2016-Jun-14 13:31N 38°57' W 076°24'0 0.0
2016-Jun-14 12:31N 38°57' W 076°24'0 0.0
2016-Jun-14 11:31N 38°57' W 076°24'0 0.0
2016-Jun-14 10:31N 38°57' W 076°24'0 0.0
2016-Jun-14 09:31N 38°57' W 076°24'0 0.2
2016-Jun-14 08:31N 38°57' W 076°24'0 0.1
2016-Jun-14 07:31N 38°57' W 076°24'0 0.0
2016-Jun-14 05:31N 38°57' W 076°24'0 0.0
2016-Jun-14 04:31N 38°57' W 076°24'0 0.0
2016-Jun-14 03:31N 38°57' W 076°24'0 0.0
2016-Jun-14 02:31N 38°57' W 076°24'0 0.1
2016-Jun-14 01:31N 38°57' W 076°24'0 0.1
2016-Jun-14 00:31N 38°57' W 076°24'0 0.1
2016-Jun-13 23:31N 38°57' W 076°24'0 0.1
2016-Jun-13 22:31N 38°57' W 076°25'0 0.1
2016-Jun-13 21:31N 38°57' W 076°24'0 0.0
2016-Jun-13 20:31N 38°57' W 076°25'0 0.0
2016-Jun-13 19:31N 38°57' W 076°25'0 0.0
2016-Jun-13 18:31N 38°57' W 076°25'0 0.0
2016-Jun-13 17:32N 38°57' W 076°25'0 0.0
2016-Jun-13 16:31N 38°57' W 076°25'0 0.0
2016-Jun-13 15:31N 38°57' W 076°24'0 0.0
2016-Jun-13 14:31N 38°57' W 076°24'0 0.0
2016-Jun-13 13:31N 38°57' W 076°24'0 0.0
2016-Jun-13 12:31N 38°57' W 076°24'0 0.0
2016-Jun-13 11:31N 38°57' W 076°24'0 0.0
2016-Jun-13 10:31N 38°57' W 076°24'0 0.0
2016-Jun-13 09:31N 38°57' W 076°24'0 0.0
2016-Jun-13 08:31N 38°57' W 076°24'0 0.0
2016-Jun-13 07:31N 38°57' W 076°24'0 0.0
2016-Jun-13 06:31N 38°57' W 076°24'0 0.1
2016-Jun-13 05:31N 38°57' W 076°24'0 0.0
2016-Jun-13 04:31N 38°57' W 076°24'0 0.0
2016-Jun-13 03:31N 38°57' W 076°24'0 0.1
2016-Jun-13 02:31N 38°57' W 076°24'0 0.0
2016-Jun-13 01:31N 38°57' W 076°24'0 0.1
2016-Jun-13 00:31N 38°57' W 076°24'0 0.0
2016-Jun-12 23:31N 38°57' W 076°24'0 0.0
2016-Jun-12 22:31N 38°57' W 076°24'0 0.0
2016-Jun-12 21:31N 38°57' W 076°24'0 0.0
2016-Jun-12 20:31N 38°57' W 076°24'0 0.0
2016-Jun-12 19:31N 38°57' W 076°24'0 0.1
2016-Jun-12 18:31N 38°57' W 076°24'0 0.0
2016-Jun-12 17:31N 38°57' W 076°24'0 0.1
2016-Jun-12 16:31N 38°57' W 076°24'0 0.0
2016-Jun-12 15:31N 38°57' W 076°24'0 0.0
2016-Jun-12 14:31N 38°57' W 076°24'0 0.1
2016-Jun-12 13:31N 38°57' W 076°24'0 0.1
2016-Jun-12 12:31N 38°57' W 076°24'0 0.0
2016-Jun-12 11:31N 38°57' W 076°24'0 0.0
2016-Jun-12 10:31N 38°57' W 076°24'0 0.0
2016-Jun-12 09:31N 38°57' W 076°24'0 0.0
2016-Jun-12 08:31N 38°57' W 076°24'0 0.0
2016-Jun-12 07:31N 38°57' W 076°24'0 0.0
2016-Jun-12 06:31N 38°57' W 076°24'0 0.1
2016-Jun-12 04:31N 38°57' W 076°24'0 0.0
2016-Jun-12 03:31N 38°57' W 076°24'0 0.0
2016-Jun-12 02:31N 38°57' W 076°24'0 0.0
2016-Jun-12 01:31N 38°57' W 076°24'0 0.0
2016-Jun-12 00:31N 38°57' W 076°24'0 0.1
2016-Jun-11 23:31N 38°57' W 076°24'0 0.0
2016-Jun-11 22:31N 38°57' W 076°24'0 0.1
2016-Jun-11 21:31N 38°57' W 076°24'0 0.1
2016-Jun-11 20:31N 38°57' W 076°24'0 0.1
2016-Jun-11 19:31N 38°57' W 076°24'0 0.1
2016-Jun-11 19:04N 38°57' W 076°24'0 0.0
2016-Jun-11 18:31N 38°57' W 076°24'0 0.0
2016-Jun-11 17:31N 38°57' W 076°24'0 0.0
2016-Jun-11 16:31N 38°57' W 076°24'6 6.2
2016-Jun-11 15:33N 38°51' W 076°25'1212.3
2016-Jun-11 14:33N 38°39' W 076°26'1612.1
2016-Jun-11 13:13N 38°24' W 076°20'1412.5
2016-Jun-11 12:07N 38°11' W 076°15'1212.4
2016-Jun-11 11:10N 37°59' W 076°12'812.6
2016-Jun-11 10:33N 37°52' W 076°09'1212.3
2016-Jun-11 09:33N 37°39' W 076°09'1212.0
2016-Jun-11 08:33N 37°28' W 076°05'1313.1
2016-Jun-11 07:33N 37°15' W 076°08'1412.6
2016-Jun-11 06:25N 37°01' W 076°03'910.5
2016-Jun-11 05:33N 36°55' W 075°55'  
Track history (hours):
 
Tides and Currents Weather Stations Pressure Air Temp Water Temp Dewpoint Dewpoint Depression Visibility Wind Speed Wind Dir Waves Ship Positions

Csl Argosy

Last reported at 2016-Jun-19 07:33 UTC. Time now 2016-Jun-24 20:27 UTC.
Position N 37°24' W 074°12'.

Length 244 m; draft 11.9 m.

Type: Cargo ship. MMSI: 308299000.

Date/timePositionNaut miles runAvg speedWind from/ knotsBaromVisibWave heightAir tempDewpointWater temp
2016-Jun-19 07:33N 37°24' W 074°12'18 8.9
2016-Jun-19 05:33N 37°16' W 074°32'10 9.2
2016-Jun-19 04:30N 37°12' W 074°43'12 9.3
2016-Jun-19 03:13N 37°07' W 074°56'48 8.5
2016-Jun-18 21:33N 36°53' W 075°54'9 9.4
2016-Jun-18 20:33N 37°00' W 076°02'58 9.7
2016-Jun-18 14:33N 37°58' W 076°11'1010.4
2016-Jun-18 13:33N 38°08' W 076°14'1111.0
2016-Jun-18 12:32N 38°19' W 076°18'1111.2
2016-Jun-18 11:33N 38°29' W 076°23'1010.0
2016-Jun-18 10:33N 38°39' W 076°25'10 9.9
2016-Jun-18 09:33N 38°48' W 076°25'9 9.4
2016-Jun-18 08:33N 38°58' W 076°23'8 8.4
2016-Jun-18 07:33N 39°06' W 076°24'8 8.3
2016-Jun-18 06:33N 39°12' W 076°31'4 4.0
2016-Jun-18 05:33N 39°15' W 076°34'0 0.0
2016-Jun-18 04:33N 39°15' W 076°34'0 0.0
2016-Jun-18 03:33N 39°15' W 076°34'0 0.0
2016-Jun-18 02:33N 39°15' W 076°34'0 0.0
2016-Jun-18 01:33N 39°15' W 076°34'0 0.0
2016-Jun-18 00:33N 39°15' W 076°34'0 0.0
2016-Jun-17 23:33N 39°15' W 076°34'0 0.0
2016-Jun-17 22:33N 39°15' W 076°34'0 0.0
2016-Jun-17 21:33N 39°15' W 076°34'0 0.0
2016-Jun-17 20:33N 39°15' W 076°34'0 0.0
2016-Jun-17 19:33N 39°15' W 076°34'0 0.0
2016-Jun-17 18:33N 39°15' W 076°34'0 0.0
2016-Jun-17 17:33N 39°15' W 076°34'0 0.0
2016-Jun-17 16:33N 39°15' W 076°34'0 0.0
2016-Jun-17 15:33N 39°15' W 076°34'0 0.0
2016-Jun-17 14:33N 39°15' W 076°34'0 0.0
2016-Jun-17 13:33N 39°15' W 076°34'0 0.0
2016-Jun-17 12:33N 39°15' W 076°34'0 0.0
2016-Jun-17 11:33N 39°15' W 076°34'0 0.0
2016-Jun-17 10:33N 39°15' W 076°34'0 0.0
2016-Jun-17 09:33N 39°15' W 076°34'0 0.0
2016-Jun-17 08:33N 39°15' W 076°34'0 0.0
2016-Jun-17 07:33N 39°15' W 076°34'0 0.0
2016-Jun-17 06:33N 39°15' W 076°34'0 0.0
2016-Jun-17 05:33N 39°15' W 076°34'0 0.0
2016-Jun-17 04:33N 39°15' W 076°34'0 0.0
2016-Jun-17 03:33N 39°15' W 076°34'0 0.0
2016-Jun-17 02:33N 39°15' W 076°34'0 0.1
2016-Jun-17 01:33N 39°15' W 076°34'1 1.0
2016-Jun-17 00:31N 39°15' W 076°33'0 0.0
2016-Jun-16 23:31N 39°15' W 076°33'0 0.0
2016-Jun-16 22:31N 39°15' W 076°33'0 0.0
2016-Jun-16 21:31N 39°15' W 076°33'0 0.1
2016-Jun-16 20:31N 39°15' W 076°33'3 3.4
2016-Jun-16 19:33N 39°12' W 076°30'10 9.6
2016-Jun-16 18:33N 39°04' W 076°24'7 6.7
2016-Jun-16 17:31N 38°57' W 076°25'0 0.1
2016-Jun-16 16:31N 38°57' W 076°24'0 0.0
2016-Jun-16 15:31N 38°57' W 076°24'0 0.0
2016-Jun-16 14:31N 38°57' W 076°24'0 0.0
2016-Jun-16 13:31N 38°57' W 076°24'0 0.0
2016-Jun-16 12:31N 38°57' W 076°24'0 0.1
2016-Jun-16 11:31N 38°57' W 076°25'0 0.1
2016-Jun-16 10:31N 38°57' W 076°25'0 0.1
2016-Jun-16 09:31N 38°57' W 076°24'0 0.1
2016-Jun-16 08:31N 38°57' W 076°24'0 0.0
2016-Jun-16 07:31N 38°57' W 076°24'0 0.0
2016-Jun-16 06:31N 38°57' W 076°24'0 0.0
2016-Jun-16 05:31N 38°57' W 076°24'0 0.0
2016-Jun-16 04:31N 38°57' W 076°24'0 0.0
2016-Jun-16 03:31N 38°57' W 076°24'0 0.1
2016-Jun-16 02:31N 38°57' W 076°24'0 0.1
2016-Jun-16 01:31N 38°57' W 076°25'0 0.0
2016-Jun-16 00:31N 38°57' W 076°25'0 0.0
2016-Jun-15 23:31N 38°57' W 076°25'0 0.1
2016-Jun-15 22:31N 38°57' W 076°24'0 0.1
2016-Jun-15 21:31N 38°57' W 076°24'0 0.0
2016-Jun-15 20:31N 38°57' W 076°24'0 0.1
2016-Jun-15 19:31N 38°57' W 076°24'0 0.2
2016-Jun-15 18:32N 38°57' W 076°24'0 0.0
2016-Jun-15 17:31N 38°57' W 076°24'0 0.0
2016-Jun-15 16:31N 38°57' W 076°24'0 0.0
2016-Jun-15 15:31N 38°57' W 076°24'0 0.0
2016-Jun-15 14:31N 38°57' W 076°24'0 0.0
2016-Jun-15 13:31N 38°57' W 076°24'0 0.0
2016-Jun-15 12:31N 38°57' W 076°24'0 0.2
2016-Jun-15 11:31N 38°57' W 076°24'0 0.1
2016-Jun-15 10:31N 38°57' W 076°24'0 0.0
2016-Jun-15 09:31N 38°57' W 076°24'0 0.0
2016-Jun-15 08:31N 38°57' W 076°24'0 0.0
2016-Jun-15 07:31N 38°57' W 076°24'0 0.0
2016-Jun-15 06:31N 38°57' W 076°24'0 0.0
2016-Jun-15 05:31N 38°57' W 076°24'0 0.0
2016-Jun-15 04:31N 38°57' W 076°24'0 0.0
2016-Jun-15 03:31N 38°57' W 076°24'0 0.2
2016-Jun-15 02:31N 38°57' W 076°25'0 0.1
2016-Jun-15 01:31N 38°57' W 076°25'0 0.0
2016-Jun-15 00:31N 38°57' W 076°24'0 0.0
2016-Jun-14 23:31N 38°57' W 076°24'0 0.0
2016-Jun-14 22:31N 38°57' W 076°24'0 0.0
2016-Jun-14 21:31N 38°57' W 076°24'0 0.0
2016-Jun-14 20:31N 38°57' W 076°25'0 0.1
2016-Jun-14 19:31N 38°57' W 076°25'0 0.0
2016-Jun-14 18:31N 38°57' W 076°25'0 0.1
2016-Jun-14 17:31N 38°57' W 076°24'0 0.0
2016-Jun-14 16:31N 38°57' W 076°24'0 0.0
2016-Jun-14 15:31N 38°57' W 076°25'0 0.0
2016-Jun-14 14:31N 38°57' W 076°24'0 0.0
2016-Jun-14 13:31N 38°57' W 076°24'0 0.0
2016-Jun-14 12:31N 38°57' W 076°24'0 0.0
2016-Jun-14 11:31N 38°57' W 076°24'0 0.0
2016-Jun-14 10:31N 38°57' W 076°24'0 0.0
2016-Jun-14 09:31N 38°57' W 076°24'0 0.2
2016-Jun-14 08:31N 38°57' W 076°24'0 0.1
2016-Jun-14 07:31N 38°57' W 076°24'0 0.0
2016-Jun-14 05:31N 38°57' W 076°24'0 0.0
2016-Jun-14 04:31N 38°57' W 076°24'0 0.0
2016-Jun-14 03:31N 38°57' W 076°24'0 0.0
2016-Jun-14 02:31N 38°57' W 076°24'0 0.1
2016-Jun-14 01:31N 38°57' W 076°24'0 0.1
2016-Jun-14 00:31N 38°57' W 076°24'0 0.1
2016-Jun-13 23:31N 38°57' W 076°24'0 0.1
2016-Jun-13 22:31N 38°57' W 076°25'0 0.1
2016-Jun-13 21:31N 38°57' W 076°24'0 0.0
2016-Jun-13 20:31N 38°57' W 076°25'0 0.0
2016-Jun-13 19:31N 38°57' W 076°25'0 0.0
2016-Jun-13 18:31N 38°57' W 076°25'0 0.0
2016-Jun-13 17:32N 38°57' W 076°25'0 0.0
2016-Jun-13 16:31N 38°57' W 076°25'0 0.0
2016-Jun-13 15:31N 38°57' W 076°24'0 0.0
2016-Jun-13 14:31N 38°57' W 076°24'0 0.0
2016-Jun-13 13:31N 38°57' W 076°24'0 0.0
2016-Jun-13 12:31N 38°57' W 076°24'0 0.0
2016-Jun-13 11:31N 38°57' W 076°24'0 0.0
2016-Jun-13 10:31N 38°57' W 076°24'0 0.0
2016-Jun-13 09:31N 38°57' W 076°24'0 0.0
2016-Jun-13 08:31N 38°57' W 076°24'0 0.0
2016-Jun-13 07:31N 38°57' W 076°24'0 0.0
2016-Jun-13 06:31N 38°57' W 076°24'0 0.1
2016-Jun-13 05:31N 38°57' W 076°24'0 0.0
2016-Jun-13 04:31N 38°57' W 076°24'0 0.0
2016-Jun-13 03:31N 38°57' W 076°24'0 0.1
2016-Jun-13 02:31N 38°57' W 076°24'0 0.0
2016-Jun-13 01:31N 38°57' W 076°24'0 0.1
2016-Jun-13 00:31N 38°57' W 076°24'0 0.0
2016-Jun-12 23:31N 38°57' W 076°24'0 0.0
2016-Jun-12 22:31N 38°57' W 076°24'0 0.0
2016-Jun-12 21:31N 38°57' W 076°24'0 0.0
2016-Jun-12 20:31N 38°57' W 076°24'0 0.0
2016-Jun-12 19:31N 38°57' W 076°24'0 0.1
2016-Jun-12 18:31N 38°57' W 076°24'0 0.0
2016-Jun-12 17:31N 38°57' W 076°24'0 0.1
2016-Jun-12 16:31N 38°57' W 076°24'0 0.0
2016-Jun-12 15:31N 38°57' W 076°24'0 0.0
2016-Jun-12 14:31N 38°57' W 076°24'0 0.1
2016-Jun-12 13:31N 38°57' W 076°24'0 0.1
2016-Jun-12 12:31N 38°57' W 076°24'0 0.0
2016-Jun-12 11:31N 38°57' W 076°24'0 0.0
2016-Jun-12 10:31N 38°57' W 076°24'0 0.0
2016-Jun-12 09:31N 38°57' W 076°24'0 0.0
2016-Jun-12 08:31N 38°57' W 076°24'0 0.0
2016-Jun-12 07:31N 38°57' W 076°24'0 0.0
2016-Jun-12 06:31N 38°57' W 076°24'0 0.1
2016-Jun-12 04:31N 38°57' W 076°24'0 0.0
2016-Jun-12 03:31N 38°57' W 076°24'0 0.0
2016-Jun-12 02:31N 38°57' W 076°24'0 0.0
2016-Jun-12 01:31N 38°57' W 076°24'0 0.0
2016-Jun-12 00:31N 38°57' W 076°24'0 0.1
2016-Jun-11 23:31N 38°57' W 076°24'0 0.0
2016-Jun-11 22:31N 38°57' W 076°24'0 0.1
2016-Jun-11 21:31N 38°57' W 076°24'0 0.1
2016-Jun-11 20:31N 38°57' W 076°24'0 0.1
2016-Jun-11 19:31N 38°57' W 076°24'0 0.1
2016-Jun-11 19:04N 38°57' W 076°24'0 0.0
2016-Jun-11 18:31N 38°57' W 076°24'0 0.0
2016-Jun-11 17:31N 38°57' W 076°24'0 0.0
2016-Jun-11 16:31N 38°57' W 076°24'6 6.2
2016-Jun-11 15:33N 38°51' W 076°25'1212.3
2016-Jun-11 14:33N 38°39' W 076°26'1612.1
2016-Jun-11 13:13N 38°24' W 076°20'1412.5
2016-Jun-11 12:07N 38°11' W 076°15'1212.4
2016-Jun-11 11:10N 37°59' W 076°12'812.6
2016-Jun-11 10:33N 37°52' W 076°09'1212.3
2016-Jun-11 09:33N 37°39' W 076°09'1212.0
2016-Jun-11 08:33N 37°28' W 076°05'1313.1
2016-Jun-11 07:33N 37°15' W 076°08'1412.6
2016-Jun-11 06:25N 37°01' W 076°03'910.5
2016-Jun-11 05:33N 36°55' W 075°55'  

Dump ship's entire track history